sensor_id;sensor_type;location;lat;lon;timestamp;temperature;humidity
31046;DHT22;17711;54.018;9.300;2023-07-31T00:00:25;16.00;99.90
31046;DHT22;17711;54.018;9.300;2023-07-31T00:02:54;16.00;99.90
31046;DHT22;17711;54.018;9.300;2023-07-31T00:05:25;16.00;99.90
31046;DHT22;17711;54.018;9.300;2023-07-31T00:07:55;16.00;99.90
31046;DHT22;17711;54.018;9.300;2023-07-31T00:10:24;16.00;99.90
31046;DHT22;17711;54.018;9.300;2023-07-31T00:12:52;16.10;99.90
31046;DHT22;17711;54.018;9.300;2023-07-31T00:15:21;16.10;99.90
31046;DHT22;17711;54.018;9.300;2023-07-31T00:17:49;16.00;99.90
31046;DHT22;17711;54.018;9.300;2023-07-31T00:20:18;16.00;99.90
31046;DHT22;17711;54.018;9.300;2023-07-31T00:22:46;15.90;99.90
31046;DHT22;17711;54.018;9.300;2023-07-31T00:25:16;16.00;99.90
31046;DHT22;17711;54.018;9.300;2023-07-31T00:27:45;15.90;99.90
31046;DHT22;17711;54.018;9.300;2023-07-31T00:30:14;15.90;99.90
31046;DHT22;17711;54.018;9.300;2023-07-31T00:32:43;15.90;99.90
31046;DHT22;17711;54.018;9.300;2023-07-31T00:35:12;16.00;99.90
31046;DHT22;17711;54.018;9.300;2023-07-31T00:37:40;15.90;99.90
31046;DHT22;17711;54.018;9.300;2023-07-31T00:40:09;15.90;99.90
31046;DHT22;17711;54.018;9.300;2023-07-31T00:42:39;15.90;99.90
31046;DHT22;17711;54.018;9.300;2023-07-31T00:45:08;15.90;99.90
31046;DHT22;17711;54.018;9.300;2023-07-31T00:47:37;15.90;99.90
31046;DHT22;17711;54.018;9.300;2023-07-31T00:53:54;15.80;99.90
31046;DHT22;17711;54.018;9.300;2023-07-31T00:56:24;15.80;99.90
31046;DHT22;17711;54.018;9.300;2023-07-31T00:58:55;15.70;99.90
31046;DHT22;17711;54.018;9.300;2023-07-31T01:01:23;15.80;99.90
31046;DHT22;17711;54.018;9.300;2023-07-31T01:03:53;15.70;99.90
31046;DHT22;17711;54.018;9.300;2023-07-31T01:06:29;15.70;99.90
31046;DHT22;17711;54.018;9.300;2023-07-31T01:09:02;15.70;99.90
31046;DHT22;17711;54.018;9.300;2023-07-31T01:11:34;15.70;99.90
31046;DHT22;17711;54.018;9.300;2023-07-31T01:14:06;15.70;99.90
31046;DHT22;17711;54.018;9.300;2023-07-31T01:16:35;15.70;99.90
31046;DHT22;17711;54.018;9.300;2023-07-31T01:19:06;15.70;99.90
31046;DHT22;17711;54.018;9.300;2023-07-31T01:24:45;15.70;99.90
31046;DHT22;17711;54.018;9.300;2023-07-31T01:27:23;15.70;99.90
31046;DHT22;17711;54.018;9.300;2023-07-31T01:29:58;15.80;99.90
31046;DHT22;17711;54.018;9.300;2023-07-31T01:32:28;15.80;99.90
31046;DHT22;17711;54.018;9.300;2023-07-31T01:34:58;15.80;99.90
31046;DHT22;17711;54.018;9.300;2023-07-31T01:37:28;15.90;99.90
31046;DHT22;17711;54.018;9.300;2023-07-31T01:39:57;15.90;99.90
31046;DHT22;17711;54.018;9.300;2023-07-31T01:42:27;16.00;99.90
31046;DHT22;17711;54.018;9.300;2023-07-31T01:44:56;16.00;99.90
31046;DHT22;17711;54.018;9.300;2023-07-31T01:47:24;16.10;99.90
31046;DHT22;17711;54.018;9.300;2023-07-31T01:49:53;16.10;99.90
31046;DHT22;17711;54.018;9.300;2023-07-31T01:52:21;16.20;99.90
31046;DHT22;17711;54.018;9.300;2023-07-31T01:54:51;16.30;99.90
31046;DHT22;17711;54.018;9.300;2023-07-31T01:57:20;16.30;99.90
31046;DHT22;17711;54.018;9.300;2023-07-31T01:59:50;16.30;99.90
31046;DHT22;17711;54.018;9.300;2023-07-31T02:02:20;16.40;99.90
31046;DHT22;17711;54.018;9.300;2023-07-31T02:04:50;16.40;99.90
31046;DHT22;17711;54.018;9.300;2023-07-31T02:07:19;16.40;99.90
31046;DHT22;17711;54.018;9.300;2023-07-31T02:09:48;16.40;99.90
31046;DHT22;17711;54.018;9.300;2023-07-31T02:12:17;16.40;99.90
31046;DHT22;17711;54.018;9.300;2023-07-31T02:14:46;16.40;99.90
31046;DHT22;17711;54.018;9.300;2023-07-31T02:17:16;16.40;99.90
31046;DHT22;17711;54.018;9.300;2023-07-31T02:19:45;16.40;99.90
31046;DHT22;17711;54.018;9.300;2023-07-31T02:22:13;16.40;99.90
31046;DHT22;17711;54.018;9.300;2023-07-31T02:24:42;16.40;99.90
31046;DHT22;17711;54.018;9.300;2023-07-31T02:27:10;16.50;99.90
31046;DHT22;17711;54.018;9.300;2023-07-31T02:29:39;16.50;99.90
31046;DHT22;17711;54.018;9.300;2023-07-31T02:32:08;16.50;99.90
31046;DHT22;17711;54.018;9.300;2023-07-31T02:34:38;16.50;99.90
31046;DHT22;17711;54.018;9.300;2023-07-31T02:37:07;16.50;99.90
31046;DHT22;17711;54.018;9.300;2023-07-31T02:39:35;16.40;99.90
31046;DHT22;17711;54.018;9.300;2023-07-31T02:42:04;16.50;99.90
31046;DHT22;17711;54.018;9.300;2023-07-31T02:44:33;16.50;99.90
31046;DHT22;17711;54.018;9.300;2023-07-31T02:47:01;16.50;99.90
31046;DHT22;17711;54.018;9.300;2023-07-31T02:49:31;16.50;99.90
31046;DHT22;17711;54.018;9.300;2023-07-31T02:52:01;16.50;99.90
31046;DHT22;17711;54.018;9.300;2023-07-31T02:54:29;16.50;99.90
31046;DHT22;17711;54.018;9.300;2023-07-31T02:56:58;16.50;99.90
31046;DHT22;17711;54.018;9.300;2023-07-31T02:59:28;16.50;99.90
31046;DHT22;17711;54.018;9.300;2023-07-31T03:01:57;16.40;99.90
31046;DHT22;17711;54.018;9.300;2023-07-31T03:04:25;16.40;99.90
31046;DHT22;17711;54.018;9.300;2023-07-31T03:06:54;16.50;99.90
31046;DHT22;17711;54.018;9.300;2023-07-31T03:09:24;16.40;99.90
31046;DHT22;17711;54.018;9.300;2023-07-31T03:11:52;16.40;99.90
31046;DHT22;17711;54.018;9.300;2023-07-31T03:14:21;16.40;99.90
31046;DHT22;17711;54.018;9.300;2023-07-31T03:16:49;16.40;99.90
31046;DHT22;17711;54.018;9.300;2023-07-31T03:19:18;16.40;99.90
31046;DHT22;17711;54.018;9.300;2023-07-31T03:21:47;16.40;99.90
31046;DHT22;17711;54.018;9.300;2023-07-31T03:24:15;16.40;99.90
31046;DHT22;17711;54.018;9.300;2023-07-31T03:26:45;16.40;99.90
31046;DHT22;17711;54.018;9.300;2023-07-31T03:29:14;16.50;99.90
31046;DHT22;17711;54.018;9.300;2023-07-31T03:31:42;16.50;99.90
31046;DHT22;17711;54.018;9.300;2023-07-31T03:34:11;16.50;99.90
31046;DHT22;17711;54.018;9.300;2023-07-31T03:36:40;16.50;99.90
31046;DHT22;17711;54.018;9.300;2023-07-31T03:39:08;16.50;99.90
31046;DHT22;17711;54.018;9.300;2023-07-31T03:41:37;16.50;99.90
31046;DHT22;17711;54.018;9.300;2023-07-31T03:44:07;16.50;99.90
31046;DHT22;17711;54.018;9.300;2023-07-31T03:46:36;16.50;99.90
31046;DHT22;17711;54.018;9.300;2023-07-31T03:49:05;16.50;99.90
31046;DHT22;17711;54.018;9.300;2023-07-31T03:51:33;16.50;99.90
31046;DHT22;17711;54.018;9.300;2023-07-31T03:54:02;16.50;99.90
31046;DHT22;17711;54.018;9.300;2023-07-31T03:56:31;16.50;99.90
31046;DHT22;17711;54.018;9.300;2023-07-31T03:59:02;16.60;99.90
31046;DHT22;17711;54.018;9.300;2023-07-31T04:01:32;16.60;99.90
31046;DHT22;17711;54.018;9.300;2023-07-31T04:04:01;16.50;99.90
31046;DHT22;17711;54.018;9.300;2023-07-31T04:06:29;16.60;99.90
31046;DHT22;17711;54.018;9.300;2023-07-31T04:08:58;16.60;99.90
31046;DHT22;17711;54.018;9.300;2023-07-31T04:11:26;16.70;99.90
31046;DHT22;17711;54.018;9.300;2023-07-31T04:13:55;16.70;99.90
31046;DHT22;17711;54.018;9.300;2023-07-31T04:16:24;16.70;99.90
31046;DHT22;17711;54.018;9.300;2023-07-31T04:18:54;16.70;99.90
31046;DHT22;17711;54.018;9.300;2023-07-31T04:21:22;16.70;99.90
31046;DHT22;17711;54.018;9.300;2023-07-31T04:23:51;16.80;99.90
31046;DHT22;17711;54.018;9.300;2023-07-31T04:26:23;16.80;99.90
31046;DHT22;17711;54.018;9.300;2023-07-31T04:28:51;16.80;99.90
31046;DHT22;17711;54.018;9.300;2023-07-31T04:31:20;16.90;99.90
31046;DHT22;17711;54.018;9.300;2023-07-31T04:33:48;16.90;99.90
31046;DHT22;17711;54.018;9.300;2023-07-31T04:36:18;16.90;99.90
31046;DHT22;17711;54.018;9.300;2023-07-31T04:38:47;16.90;99.90
31046;DHT22;17711;54.018;9.300;2023-07-31T04:41:16;16.90;99.90
31046;DHT22;17711;54.018;9.300;2023-07-31T04:43:45;16.90;99.90
31046;DHT22;17711;54.018;9.300;2023-07-31T04:46:13;17.00;99.90
31046;DHT22;17711;54.018;9.300;2023-07-31T04:48:42;17.00;99.90
31046;DHT22;17711;54.018;9.300;2023-07-31T04:51:11;17.00;99.90
31046;DHT22;17711;54.018;9.300;2023-07-31T04:53:41;17.10;99.90
31046;DHT22;17711;54.018;9.300;2023-07-31T04:56:10;17.10;99.90
31046;DHT22;17711;54.018;9.300;2023-07-31T04:58:38;17.10;99.90
31046;DHT22;17711;54.018;9.300;2023-07-31T05:01:07;17.10;99.90
31046;DHT22;17711;54.018;9.300;2023-07-31T05:03:35;17.10;99.90
31046;DHT22;17711;54.018;9.300;2023-07-31T05:06:04;17.10;99.90
31046;DHT22;17711;54.018;9.300;2023-07-31T05:08:33;17.00;99.90
31046;DHT22;17711;54.018;9.300;2023-07-31T05:11:04;17.00;99.90
31046;DHT22;17711;54.018;9.300;2023-07-31T05:13:33;17.00;99.90
31046;DHT22;17711;54.018;9.300;2023-07-31T05:16:02;17.10;99.90
31046;DHT22;17711;54.018;9.300;2023-07-31T05:18:30;17.00;99.90
31046;DHT22;17711;54.018;9.300;2023-07-31T05:20:59;17.00;99.90
31046;DHT22;17711;54.018;9.300;2023-07-31T05:23:27;17.00;99.90
31046;DHT22;17711;54.018;9.300;2023-07-31T05:26:04;16.90;99.90
31046;DHT22;17711;54.018;9.300;2023-07-31T05:28:34;16.90;99.90
31046;DHT22;17711;54.018;9.300;2023-07-31T05:31:03;17.00;99.90
31046;DHT22;17711;54.018;9.300;2023-07-31T05:33:33;17.00;99.90
31046;DHT22;17711;54.018;9.300;2023-07-31T05:36:01;17.00;99.90
31046;DHT22;17711;54.018;9.300;2023-07-31T05:38:30;17.00;99.90
31046;DHT22;17711;54.018;9.300;2023-07-31T05:40:58;17.00;99.90
31046;DHT22;17711;54.018;9.300;2023-07-31T05:43:28;17.00;99.90
31046;DHT22;17711;54.018;9.300;2023-07-31T05:45:57;17.00;99.90
31046;DHT22;17711;54.018;9.300;2023-07-31T05:48:26;17.10;99.90
31046;DHT22;17711;54.018;9.300;2023-07-31T05:50:55;17.20;99.90
31046;DHT22;17711;54.018;9.300;2023-07-31T05:53:23;17.20;99.90
31046;DHT22;17711;54.018;9.300;2023-07-31T05:55:52;17.20;99.90
31046;DHT22;17711;54.018;9.300;2023-07-31T05:58:21;17.20;99.90
31046;DHT22;17711;54.018;9.300;2023-07-31T06:00:51;17.20;99.90
31046;DHT22;17711;54.018;9.300;2023-07-31T06:03:20;17.20;99.90
31046;DHT22;17711;54.018;9.300;2023-07-31T06:05:48;17.30;99.90
31046;DHT22;17711;54.018;9.300;2023-07-31T06:08:17;17.20;99.90
31046;DHT22;17711;54.018;9.300;2023-07-31T06:10:46;17.20;99.90
31046;DHT22;17711;54.018;9.300;2023-07-31T06:13:15;17.20;99.90
31046;DHT22;17711;54.018;9.300;2023-07-31T06:15:43;17.20;99.90
31046;DHT22;17711;54.018;9.300;2023-07-31T06:18:13;17.20;99.90
31046;DHT22;17711;54.018;9.300;2023-07-31T06:20:42;17.20;99.90
31046;DHT22;17711;54.018;9.300;2023-07-31T06:23:11;17.20;99.90
31046;DHT22;17711;54.018;9.300;2023-07-31T06:25:40;17.20;99.90
31046;DHT22;17711;54.018;9.300;2023-07-31T06:28:08;17.20;99.90
31046;DHT22;17711;54.018;9.300;2023-07-31T06:30:37;17.20;99.90
31046;DHT22;17711;54.018;9.300;2023-07-31T06:33:06;17.30;99.90
31046;DHT22;17711;54.018;9.300;2023-07-31T06:35:37;17.30;99.90
31046;DHT22;17711;54.018;9.300;2023-07-31T06:38:06;17.20;99.90
31046;DHT22;17711;54.018;9.300;2023-07-31T06:40:35;17.30;99.90
31046;DHT22;17711;54.018;9.300;2023-07-31T06:43:03;17.20;99.90
31046;DHT22;17711;54.018;9.300;2023-07-31T06:45:35;17.30;99.90
31046;DHT22;17711;54.018;9.300;2023-07-31T06:48:11;17.20;99.90
31046;DHT22;17711;54.018;9.300;2023-07-31T06:51:00;17.20;99.90
31046;DHT22;17711;54.018;9.300;2023-07-31T06:53:36;17.30;99.90
31046;DHT22;17711;54.018;9.300;2023-07-31T06:56:04;17.20;99.90
31046;DHT22;17711;54.018;9.300;2023-07-31T06:58:33;17.20;99.90
31046;DHT22;17711;54.018;9.300;2023-07-31T07:01:02;17.10;99.90
31046;DHT22;17711;54.018;9.300;2023-07-31T07:03:30;17.10;99.90
31046;DHT22;17711;54.018;9.300;2023-07-31T07:06:01;17.20;99.90
31046;DHT22;17711;54.018;9.300;2023-07-31T07:08:30;17.20;99.90
31046;DHT22;17711;54.018;9.300;2023-07-31T07:10:58;17.20;99.90
31046;DHT22;17711;54.018;9.300;2023-07-31T07:13:27;17.10;99.90
31046;DHT22;17711;54.018;9.300;2023-07-31T07:15:56;17.20;99.90
31046;DHT22;17711;54.018;9.300;2023-07-31T07:18:24;17.30;99.90
31046;DHT22;17711;54.018;9.300;2023-07-31T07:20:54;17.30;99.90
31046;DHT22;17711;54.018;9.300;2023-07-31T07:23:26;17.30;99.90
31046;DHT22;17711;54.018;9.300;2023-07-31T07:25:54;17.30;99.90
31046;DHT22;17711;54.018;9.300;2023-07-31T07:28:23;17.40;99.90
31046;DHT22;17711;54.018;9.300;2023-07-31T07:30:53;17.30;99.90
31046;DHT22;17711;54.018;9.300;2023-07-31T07:33:22;17.30;99.90
31046;DHT22;17711;54.018;9.300;2023-07-31T07:35:50;17.30;99.90
31046;DHT22;17711;54.018;9.300;2023-07-31T07:38:19;17.30;99.90
31046;DHT22;17711;54.018;9.300;2023-07-31T07:40:51;17.40;99.90
31046;DHT22;17711;54.018;9.300;2023-07-31T07:43:20;17.40;99.90
31046;DHT22;17711;54.018;9.300;2023-07-31T07:45:49;17.40;99.90
31046;DHT22;17711;54.018;9.300;2023-07-31T07:48:18;17.50;99.90
31046;DHT22;17711;54.018;9.300;2023-07-31T07:50:49;17.50;99.90
31046;DHT22;17711;54.018;9.300;2023-07-31T07:53:17;17.50;99.90
31046;DHT22;17711;54.018;9.300;2023-07-31T07:55:47;17.50;99.90
31046;DHT22;17711;54.018;9.300;2023-07-31T07:58:18;17.40;99.90
31046;DHT22;17711;54.018;9.300;2023-07-31T08:00:51;17.50;99.90
31046;DHT22;17711;54.018;9.300;2023-07-31T08:03:21;17.50;99.90
31046;DHT22;17711;54.018;9.300;2023-07-31T08:05:49;17.60;99.90
31046;DHT22;17711;54.018;9.300;2023-07-31T08:08:18;17.60;99.90
31046;DHT22;17711;54.018;9.300;2023-07-31T08:10:47;17.80;99.90
31046;DHT22;17711;54.018;9.300;2023-07-31T08:13:17;17.90;99.90
31046;DHT22;17711;54.018;9.300;2023-07-31T08:15:46;17.90;99.90
31046;DHT22;17711;54.018;9.300;2023-07-31T08:18:15;17.90;99.90
31046;DHT22;17711;54.018;9.300;2023-07-31T08:20:44;17.90;99.90
31046;DHT22;17711;54.018;9.300;2023-07-31T08:23:14;18.00;99.90
31046;DHT22;17711;54.018;9.300;2023-07-31T08:25:45;18.00;99.90
31046;DHT22;17711;54.018;9.300;2023-07-31T08:28:18;17.90;99.90
31046;DHT22;17711;54.018;9.300;2023-07-31T08:30:47;18.00;99.90
31046;DHT22;17711;54.018;9.300;2023-07-31T08:33:17;18.00;99.90
31046;DHT22;17711;54.018;9.300;2023-07-31T08:35:47;18.00;99.90
31046;DHT22;17711;54.018;9.300;2023-07-31T08:38:16;18.10;99.90
31046;DHT22;17711;54.018;9.300;2023-07-31T08:40:44;18.10;99.90
31046;DHT22;17711;54.018;9.300;2023-07-31T08:43:13;18.10;99.90
31046;DHT22;17711;54.018;9.300;2023-07-31T08:45:44;18.20;99.90
31046;DHT22;17711;54.018;9.300;2023-07-31T08:48:13;18.30;99.90
31046;DHT22;17711;54.018;9.300;2023-07-31T08:50:42;18.30;99.90
31046;DHT22;17711;54.018;9.300;2023-07-31T08:53:11;18.30;99.90
31046;DHT22;17711;54.018;9.300;2023-07-31T08:55:40;18.40;99.90
31046;DHT22;17711;54.018;9.300;2023-07-31T08:58:10;18.50;99.90
31046;DHT22;17711;54.018;9.300;2023-07-31T09:00:44;18.60;99.90
31046;DHT22;17711;54.018;9.300;2023-07-31T09:03:15;18.70;99.90
31046;DHT22;17711;54.018;9.300;2023-07-31T09:05:46;18.60;99.90
31046;DHT22;17711;54.018;9.300;2023-07-31T09:08:19;18.70;99.90
31046;DHT22;17711;54.018;9.300;2023-07-31T09:10:49;18.80;99.90
31046;DHT22;17711;54.018;9.300;2023-07-31T09:13:18;18.80;99.90
31046;DHT22;17711;54.018;9.300;2023-07-31T09:15:48;18.90;99.90
31046;DHT22;17711;54.018;9.300;2023-07-31T09:18:17;18.90;99.90
31046;DHT22;17711;54.018;9.300;2023-07-31T09:21:00;19.00;99.90
31046;DHT22;17711;54.018;9.300;2023-07-31T09:23:41;19.10;99.90
31046;DHT22;17711;54.018;9.300;2023-07-31T09:26:13;19.20;99.90
31046;DHT22;17711;54.018;9.300;2023-07-31T09:28:56;19.50;99.90
31046;DHT22;17711;54.018;9.300;2023-07-31T09:31:38;19.70;99.90
31046;DHT22;17711;54.018;9.300;2023-07-31T09:34:07;19.80;99.90
31046;DHT22;17711;54.018;9.300;2023-07-31T09:36:42;19.80;99.90
31046;DHT22;17711;54.018;9.300;2023-07-31T09:39:11;19.80;99.90
31046;DHT22;17711;54.018;9.300;2023-07-31T09:41:44;19.70;99.90
31046;DHT22;17711;54.018;9.300;2023-07-31T09:44:13;19.60;99.90
31046;DHT22;17711;54.018;9.300;2023-07-31T09:46:44;19.60;99.90
31046;DHT22;17711;54.018;9.300;2023-07-31T09:49:13;19.60;99.90
31046;DHT22;17711;54.018;9.300;2023-07-31T09:51:42;19.60;99.90
31046;DHT22;17711;54.018;9.300;2023-07-31T09:54:12;19.40;99.90
31046;DHT22;17711;54.018;9.300;2023-07-31T09:56:43;19.30;99.90
31046;DHT22;17711;54.018;9.300;2023-07-31T09:59:13;19.20;99.90
31046;DHT22;17711;54.018;9.300;2023-07-31T10:01:45;19.10;99.90
31046;DHT22;17711;54.018;9.300;2023-07-31T10:04:16;19.00;99.90
31046;DHT22;17711;54.018;9.300;2023-07-31T10:06:48;19.10;99.90
31046;DHT22;17711;54.018;9.300;2023-07-31T10:09:18;19.30;99.90
31046;DHT22;17711;54.018;9.300;2023-07-31T10:11:55;19.40;99.90
31046;DHT22;17711;54.018;9.300;2023-07-31T10:14:29;19.30;99.90
31046;DHT22;17711;54.018;9.300;2023-07-31T10:17:03;19.30;99.90
31046;DHT22;17711;54.018;9.300;2023-07-31T10:19:32;19.20;99.90
31046;DHT22;17711;54.018;9.300;2023-07-31T10:22:03;19.10;99.90
31046;DHT22;17711;54.018;9.300;2023-07-31T10:24:32;19.00;99.90
31046;DHT22;17711;54.018;9.300;2023-07-31T10:27:02;19.10;99.90
31046;DHT22;17711;54.018;9.300;2023-07-31T10:29:31;19.10;99.90
31046;DHT22;17711;54.018;9.300;2023-07-31T10:32:03;19.10;99.90
31046;DHT22;17711;54.018;9.300;2023-07-31T10:34:34;19.20;99.90
31046;DHT22;17711;54.018;9.300;2023-07-31T10:37:20;19.30;99.90
31046;DHT22;17711;54.018;9.300;2023-07-31T10:40:00;19.30;99.90
31046;DHT22;17711;54.018;9.300;2023-07-31T10:42:33;19.30;99.90
31046;DHT22;17711;54.018;9.300;2023-07-31T10:45:04;19.20;99.90
31046;DHT22;17711;54.018;9.300;2023-07-31T10:47:38;19.20;99.90
31046;DHT22;17711;54.018;9.300;2023-07-31T10:50:17;19.20;99.90
31046;DHT22;17711;54.018;9.300;2023-07-31T10:52:47;19.20;99.90
31046;DHT22;17711;54.018;9.300;2023-07-31T10:55:27;19.20;99.90
31046;DHT22;17711;54.018;9.300;2023-07-31T10:57:57;19.20;99.90
31046;DHT22;17711;54.018;9.300;2023-07-31T11:00:28;19.20;99.90
31046;DHT22;17711;54.018;9.300;2023-07-31T11:03:02;19.00;99.90
31046;DHT22;17711;54.018;9.300;2023-07-31T11:05:46;19.00;99.90
31046;DHT22;17711;54.018;9.300;2023-07-31T11:08:17;19.00;99.90
31046;DHT22;17711;54.018;9.300;2023-07-31T11:10:51;19.00;99.90
31046;DHT22;17711;54.018;9.300;2023-07-31T11:13:34;19.10;99.90
31046;DHT22;17711;54.018;9.300;2023-07-31T11:16:08;19.10;99.90
31046;DHT22;17711;54.018;9.300;2023-07-31T11:18:40;19.20;99.90
31046;DHT22;17711;54.018;9.300;2023-07-31T11:21:12;19.30;99.90
31046;DHT22;17711;54.018;9.300;2023-07-31T11:23:45;19.30;99.90
31046;DHT22;17711;54.018;9.300;2023-07-31T11:26:15;19.20;99.90
31046;DHT22;17711;54.018;9.300;2023-07-31T11:28:47;19.30;99.90
31046;DHT22;17711;54.018;9.300;2023-07-31T11:31:16;19.20;99.90
31046;DHT22;17711;54.018;9.300;2023-07-31T11:33:49;19.10;99.90
31046;DHT22;17711;54.018;9.300;2023-07-31T11:36:21;19.10;99.90
31046;DHT22;17711;54.018;9.300;2023-07-31T11:38:50;18.90;99.90
31046;DHT22;17711;54.018;9.300;2023-07-31T11:41:19;18.90;99.90
31046;DHT22;17711;54.018;9.300;2023-07-31T11:44:00;18.70;99.90
31046;DHT22;17711;54.018;9.300;2023-07-31T11:46:47;18.60;99.90
31046;DHT22;17711;54.018;9.300;2023-07-31T11:49:18;18.60;99.90
31046;DHT22;17711;54.018;9.300;2023-07-31T11:51:47;18.60;99.90
31046;DHT22;17711;54.018;9.300;2023-07-31T11:54:20;18.60;99.90
31046;DHT22;17711;54.018;9.300;2023-07-31T11:56:53;18.60;99.90
31046;DHT22;17711;54.018;9.300;2023-07-31T11:59:25;18.70;99.90
31046;DHT22;17711;54.018;9.300;2023-07-31T12:01:54;18.60;99.90
31046;DHT22;17711;54.018;9.300;2023-07-31T12:04:25;18.70;99.90
31046;DHT22;17711;54.018;9.300;2023-07-31T12:06:54;18.60;99.90
31046;DHT22;17711;54.018;9.300;2023-07-31T12:09:25;18.50;99.90
31046;DHT22;17711;54.018;9.300;2023-07-31T12:11:53;18.60;99.90
31046;DHT22;17711;54.018;9.300;2023-07-31T12:14:24;18.60;99.90
31046;DHT22;17711;54.018;9.300;2023-07-31T12:16:54;18.60;99.90
31046;DHT22;17711;54.018;9.300;2023-07-31T12:19:26;18.70;99.90
31046;DHT22;17711;54.018;9.300;2023-07-31T12:21:58;18.80;99.90
31046;DHT22;17711;54.018;9.300;2023-07-31T12:24:27;19.00;99.90
31046;DHT22;17711;54.018;9.300;2023-07-31T12:26:56;19.10;99.90
31046;DHT22;17711;54.018;9.300;2023-07-31T12:29:34;19.10;99.90
31046;DHT22;17711;54.018;9.300;2023-07-31T12:32:21;19.10;99.90
31046;DHT22;17711;54.018;9.300;2023-07-31T12:34:52;19.20;99.90
31046;DHT22;17711;54.018;9.300;2023-07-31T12:37:21;19.10;99.90
31046;DHT22;17711;54.018;9.300;2023-07-31T12:39:50;19.00;99.90
31046;DHT22;17711;54.018;9.300;2023-07-31T12:42:19;19.10;99.90
31046;DHT22;17711;54.018;9.300;2023-07-31T12:44:48;19.30;99.90
31046;DHT22;17711;54.018;9.300;2023-07-31T12:47:17;19.30;99.90
31046;DHT22;17711;54.018;9.300;2023-07-31T12:49:46;19.20;99.90
31046;DHT22;17711;54.018;9.300;2023-07-31T12:52:16;19.10;99.90
31046;DHT22;17711;54.018;9.300;2023-07-31T12:54:45;19.10;99.90
31046;DHT22;17711;54.018;9.300;2023-07-31T12:57:14;19.10;99.90
31046;DHT22;17711;54.018;9.300;2023-07-31T12:59:42;19.20;99.90
31046;DHT22;17711;54.018;9.300;2023-07-31T13:02:11;19.30;99.90
31046;DHT22;17711;54.018;9.300;2023-07-31T13:04:41;19.30;99.90
31046;DHT22;17711;54.018;9.300;2023-07-31T13:07:11;19.50;99.90
31046;DHT22;17711;54.018;9.300;2023-07-31T13:09:42;19.50;99.90
31046;DHT22;17711;54.018;9.300;2023-07-31T13:12:11;19.50;99.90
31046;DHT22;17711;54.018;9.300;2023-07-31T13:14:39;19.50;99.90
31046;DHT22;17711;54.018;9.300;2023-07-31T13:17:08;19.40;99.90
31046;DHT22;17711;54.018;9.300;2023-07-31T13:19:37;19.50;99.90
31046;DHT22;17711;54.018;9.300;2023-07-31T13:22:07;19.50;99.90
31046;DHT22;17711;54.018;9.300;2023-07-31T13:24:36;19.50;99.90
31046;DHT22;17711;54.018;9.300;2023-07-31T13:27:06;19.40;99.90
31046;DHT22;17711;54.018;9.300;2023-07-31T13:29:35;19.40;99.90
31046;DHT22;17711;54.018;9.300;2023-07-31T13:32:05;19.50;99.90
31046;DHT22;17711;54.018;9.300;2023-07-31T13:34:33;19.40;99.90
31046;DHT22;17711;54.018;9.300;2023-07-31T13:37:03;19.30;99.90
31046;DHT22;17711;54.018;9.300;2023-07-31T13:39:33;19.30;99.90
31046;DHT22;17711;54.018;9.300;2023-07-31T13:42:03;19.30;99.90
31046;DHT22;17711;54.018;9.300;2023-07-31T13:44:35;19.30;99.90
31046;DHT22;17711;54.018;9.300;2023-07-31T13:47:04;19.20;99.90
31046;DHT22;17711;54.018;9.300;2023-07-31T13:49:33;19.20;99.90
31046;DHT22;17711;54.018;9.300;2023-07-31T13:52:03;19.20;99.90
31046;DHT22;17711;54.018;9.300;2023-07-31T13:54:32;19.10;99.90
31046;DHT22;17711;54.018;9.300;2023-07-31T13:57:01;19.00;99.90
31046;DHT22;17711;54.018;9.300;2023-07-31T13:59:29;18.90;99.90
31046;DHT22;17711;54.018;9.300;2023-07-31T14:02:09;18.90;99.90
31046;DHT22;17711;54.018;9.300;2023-07-31T14:04:38;19.00;99.90
31046;DHT22;17711;54.018;9.300;2023-07-31T14:07:07;19.00;99.90
31046;DHT22;17711;54.018;9.300;2023-07-31T14:09:36;19.30;99.90
31046;DHT22;17711;54.018;9.300;2023-07-31T14:12:06;19.50;99.90
31046;DHT22;17711;54.018;9.300;2023-07-31T14:14:36;19.90;99.90
31046;DHT22;17711;54.018;9.300;2023-07-31T14:17:06;20.20;99.90
31046;DHT22;17711;54.018;9.300;2023-07-31T14:19:36;20.50;99.90
31046;DHT22;17711;54.018;9.300;2023-07-31T14:22:06;20.70;99.90
31046;DHT22;17711;54.018;9.300;2023-07-31T14:24:37;20.70;99.90
31046;DHT22;17711;54.018;9.300;2023-07-31T14:27:06;20.80;99.90
31046;DHT22;17711;54.018;9.300;2023-07-31T14:29:36;20.70;99.90
31046;DHT22;17711;54.018;9.300;2023-07-31T14:32:07;20.70;99.90
31046;DHT22;17711;54.018;9.300;2023-07-31T14:34:36;20.80;99.90
31046;DHT22;17711;54.018;9.300;2023-07-31T14:37:05;20.70;99.90
31046;DHT22;17711;54.018;9.300;2023-07-31T14:39:35;20.60;99.90
31046;DHT22;17711;54.018;9.300;2023-07-31T14:42:07;20.60;99.90
31046;DHT22;17711;54.018;9.300;2023-07-31T14:44:36;20.70;99.90
31046;DHT22;17711;54.018;9.300;2023-07-31T14:47:07;20.60;99.90
31046;DHT22;17711;54.018;9.300;2023-07-31T14:49:35;20.50;99.90
31046;DHT22;17711;54.018;9.300;2023-07-31T14:52:05;20.20;99.90
31046;DHT22;17711;54.018;9.300;2023-07-31T14:54:34;20.10;99.90
31046;DHT22;17711;54.018;9.300;2023-07-31T14:57:03;19.90;99.90
31046;DHT22;17711;54.018;9.300;2023-07-31T14:59:33;19.90;99.90
31046;DHT22;17711;54.018;9.300;2023-07-31T15:02:02;20.00;99.90
31046;DHT22;17711;54.018;9.300;2023-07-31T15:04:32;20.00;99.90
31046;DHT22;17711;54.018;9.300;2023-07-31T15:07:01;19.80;99.90
31046;DHT22;17711;54.018;9.300;2023-07-31T15:09:30;19.90;99.90
31046;DHT22;17711;54.018;9.300;2023-07-31T15:11:59;19.80;99.90
31046;DHT22;17711;54.018;9.300;2023-07-31T15:14:28;19.80;99.90
31046;DHT22;17711;54.018;9.300;2023-07-31T15:16:58;19.80;99.90
31046;DHT22;17711;54.018;9.300;2023-07-31T15:19:27;19.80;99.90
31046;DHT22;17711;54.018;9.300;2023-07-31T15:21:58;19.80;99.90
31046;DHT22;17711;54.018;9.300;2023-07-31T15:24:26;19.80;99.90
31046;DHT22;17711;54.018;9.300;2023-07-31T15:26:56;19.70;99.90
31046;DHT22;17711;54.018;9.300;2023-07-31T15:29:25;19.80;99.90
31046;DHT22;17711;54.018;9.300;2023-07-31T15:31:54;19.70;99.90
31046;DHT22;17711;54.018;9.300;2023-07-31T15:34:23;19.80;99.90
31046;DHT22;17711;54.018;9.300;2023-07-31T15:36:54;19.90;99.90
31046;DHT22;17711;54.018;9.300;2023-07-31T15:39:24;19.70;99.90
31046;DHT22;17711;54.018;9.300;2023-07-31T15:41:54;19.70;99.90
31046;DHT22;17711;54.018;9.300;2023-07-31T15:44:23;19.70;99.90
31046;DHT22;17711;54.018;9.300;2023-07-31T15:46:51;19.70;99.90
31046;DHT22;17711;54.018;9.300;2023-07-31T15:49:20;19.80;99.90
31046;DHT22;17711;54.018;9.300;2023-07-31T15:51:49;19.80;99.90
31046;DHT22;17711;54.018;9.300;2023-07-31T15:54:18;19.80;99.90